Time;durP1;ratioP1;P1;durP2;ratioP2;P2;SDS_P1;SDS_P2;PMS_P1;PMS_P2;Temp;Humidity;BMP_temperature;BMP_pressure;BME280_temperature;BME280_humidity;BME280_pressure;Samples;Min_cycle;Max_cycle;Signal;HPM_P1;HPM_P2
2021/11/09 00:02:51;;;;;;;27.40;17.77;;;;;;;6.96;89.19;99555.88;2233901;79;20974;-80
2021/11/09 00:05:55;;;;;;;33.20;19.53;;;;;;;6.97;89.53;99560.23;2233755;79;20951;-79
2021/11/09 00:08:56;;;;;;;34.90;20.47;;;;;;;6.96;89.66;99559.77;2234100;79;20986;-79
2021/11/09 00:11:57;;;;;;;37.87;21.60;;;;;;;6.96;89.28;99559.77;2234583;79;21006;-81
2021/11/09 00:14:58;;;;;;;41.83;24.33;;;;;;;6.96;89.33;99564.07;2234464;79;20954;-81
2021/11/09 00:17:58;;;;;;;39.73;21.73;;;;;;;6.96;89.42;99568.84;2234262;80;21401;-79
2021/11/09 00:20:59;;;;;;;38.87;22.87;;;;;;;6.98;89.48;99572.80;2234490;79;20958;-79
2021/11/09 00:24:00;;;;;;;34.60;20.47;;;;;;;6.98;89.47;99573.69;2234047;79;20999;-79
2021/11/09 00:27:01;;;;;;;33.57;20.90;;;;;;;6.98;89.78;99575.39;2234596;79;21038;-81
2021/11/09 00:30:01;;;;;;;34.33;22.53;;;;;;;6.99;89.48;99573.27;2234560;80;20986;-81
2021/11/09 00:33:02;;;;;;;33.03;21.63;;;;;;;6.99;89.50;99572.86;2234459;79;20993;-81
2021/11/09 00:36:02;;;;;;;30.93;19.73;;;;;;;7.01;89.53;99576.80;2234325;80;20950;-81
2021/11/09 00:39:04;;;;;;;29.97;18.90;;;;;;;7.04;89.45;99578.22;2234378;79;20974;-80
2021/11/09 00:42:05;;;;;;;30.77;19.90;;;;;;;7.03;89.52;99577.34;2233898;79;21319;-80
2021/11/09 00:45:05;;;;;;;28.63;19.70;;;;;;;7.05;89.43;99581.70;2233788;79;21005;-81
2021/11/09 00:48:06;;;;;;;29.57;19.77;;;;;;;7.08;89.47;99578.80;2234168;79;20962;-80
2021/11/09 00:51:06;;;;;;;28.17;19.37;;;;;;;7.09;89.28;99579.27;2234163;80;21310;-81
2021/11/09 00:54:07;;;;;;;28.40;18.77;;;;;;;7.10;89.37;99579.75;2233699;80;21326;-80
2021/11/09 00:57:07;;;;;;;30.90;20.17;;;;;;;7.10;89.47;99574.55;2234459;79;21319;-81
2021/11/09 01:00:08;;;;;;;24.30;18.70;;;;;;;7.09;89.43;99584.47;2234370;79;21001;-80
2021/11/09 01:03:08;;;;;;;23.87;16.87;;;;;;;7.09;89.46;99579.69;2234523;79;20978;-79
2021/11/09 01:06:09;;;;;;;26.73;18.63;;;;;;;7.07;89.74;99582.23;2234481;79;20958;-81
2021/11/09 01:09:10;;;;;;;28.20;19.70;;;;;;;7.08;89.83;99584.41;2234661;79;20962;-82
2021/11/09 01:12:10;;;;;;;25.23;18.63;;;;;;;7.07;89.53;99579.63;2234430;80;20970;-80
2021/11/09 01:15:11;;;;;;;28.80;19.43;;;;;;;7.10;89.45;99587.95;2234439;79;20950;-79
2021/11/09 01:18:11;;;;;;;28.40;18.37;;;;;;;7.11;89.32;99582.81;2234466;80;21291;-80
2021/11/09 01:21:12;;;;;;;25.10;17.87;;;;;;;7.14;89.36;99588.53;2234353;79;21036;-80
2021/11/09 01:24:14;;;;;;;22.57;16.77;;;;;;;7.14;89.38;99590.72;2228404;79;21059;-80
2021/11/09 01:27:15;;;;;;;28.63;18.80;;;;;;;7.15;89.21;99590.30;2227093;80;20947;-79
2021/11/09 01:30:17;;;;;;;23.93;18.23;;;;;;;7.13;89.33;99598.03;2227129;80;21343;-80
2021/11/09 01:33:17;;;;;;;22.70;18.00;;;;;;;7.15;89.17;99600.69;2227158;80;20884;-80
2021/11/09 01:36:18;;;;;;;28.03;18.50;;;;;;;7.13;89.50;99598.45;2227222;80;21320;-80
2021/11/09 01:39:18;;;;;;;21.57;16.80;;;;;;;7.12;89.25;99599.27;2227125;80;20968;-80
2021/11/09 01:42:19;;;;;;;23.13;17.63;;;;;;;7.12;89.31;99604.47;2227042;80;20968;-80
2021/11/09 01:45:19;;;;;;;22.67;16.80;;;;;;;7.12;89.29;99607.95;2227054;80;20960;-81
2021/11/09 01:48:20;;;;;;;22.10;17.13;;;;;;;7.13;89.22;99603.64;2227298;80;20979;-80
2021/11/09 01:51:20;;;;;;;23.00;18.47;;;;;;;7.14;89.37;99606.70;2226674;80;21015;-80
2021/11/09 01:54:21;;;;;;;23.23;18.33;;;;;;;7.14;89.19;99605.41;2226950;80;21012;-80
2021/11/09 01:57:21;;;;;;;23.00;16.90;;;;;;;7.14;89.24;99608.00;2227043;80;20975;-80
2021/11/09 02:00:23;;;;;;;22.77;17.43;;;;;;;7.16;89.24;99607.65;2227119;80;21312;-79
2021/11/09 02:03:23;;;;;;;26.27;19.13;;;;;;;7.17;89.17;99613.31;2226835;80;20975;-80
2021/11/09 02:06:24;;;;;;;24.13;17.33;;;;;;;7.20;89.26;99612.13;2227648;80;21304;-82
2021/11/09 02:09:24;;;;;;;25.77;19.97;;;;;;;7.19;89.47;99610.36;2227182;80;21323;-80
2021/11/09 02:12:25;;;;;;;26.87;20.67;;;;;;;7.19;89.23;99608.65;2226734;80;20955;-81
2021/11/09 02:15:26;;;;;;;28.97;19.50;;;;;;;7.20;89.26;99614.31;2226845;80;20984;-80
2021/11/09 02:18:26;;;;;;;30.20;20.77;;;;;;;7.21;89.28;99618.67;2226565;80;20976;-79
2021/11/09 02:21:27;;;;;;;29.93;20.87;;;;;;;7.22;89.72;99617.84;2226729;80;21030;-80
2021/11/09 02:24:27;;;;;;;28.20;19.30;;;;;;;7.21;89.50;99621.27;2226041;79;21091;-80
2021/11/09 02:27:28;;;;;;;22.77;18.40;;;;;;;7.22;89.51;99625.64;2226737;80;20960;-79
2021/11/09 02:30:28;;;;;;;28.60;18.80;;;;;;;7.22;89.43;99620.45;2226783;80;21332;-81
2021/11/09 02:33:29;;;;;;;24.57;19.13;;;;;;;7.23;89.43;99627.82;2226380;80;21328;-80
2021/11/09 02:36:29;;;;;;;22.87;18.60;;;;;;;7.23;89.38;99631.30;2226471;80;21032;-79
2021/11/09 02:39:30;;;;;;;22.90;18.40;;;;;;;7.26;89.41;99637.03;2226394;80;21019;-80
2021/11/09 02:42:30;;;;;;;23.93;19.03;;;;;;;7.26;89.40;99642.22;2227064;80;20964;-81
2021/11/09 02:45:34;;;;;;;24.23;19.37;;;;;;;7.25;89.47;99643.05;2227175;80;21316;-80
2021/11/09 02:48:36;;;;;;;25.27;17.90;;;;;;;7.23;89.51;99643.41;2227361;79;21416;-80
2021/11/09 02:54:42;;;;;;;22.87;17.97;;;;;;;7.19;89.87;99650.61;2242505;79;21003;-80
2021/11/09 02:57:52;;;;;;;20.20;16.77;;;;;;;7.18;89.83;99657.92;2227532;79;21007;-84
2021/11/09 03:01:09;;;;;;;21.30;16.87;;;;;;;7.15;89.84;99653.50;2228285;79;21047;-80
2021/11/09 03:04:09;;;;;;;19.57;15.87;;;;;;;7.16;89.79;99654.38;2227526;79;21071;-80
2021/11/09 03:07:23;;;;;;;19.07;17.07;;;;;;;7.14;90.18;99667.72;2227348;79;21327;-80
2021/11/09 03:10:22;;;;;;;20.60;16.20;;;;;;;7.14;90.31;99667.31;2228183;79;20995;-82
2021/11/09 03:13:13;;;;;;;18.40;16.47;;;;;;;7.15;90.05;99670.79;2228017;79;20999;-81
2021/11/09 03:16:14;;;;;;;18.03;16.17;;;;;;;7.15;90.17;99675.56;2227416;80;21335;-81
2021/11/09 03:19:32;;;;;;;20.23;16.53;;;;;;;7.13;90.06;99682.41;2227480;80;20952;-80
2021/11/09 03:45:34;;;;;;;15.50;13.57;;;;;;;7.28;89.81;99702.48;2227249;80;21015;-81
2021/11/09 03:48:36;;;;;;;18.70;16.57;;;;;;;7.28;89.72;99701.59;2227214;80;20953;-81
2021/11/09 03:51:36;;;;;;;17.93;15.90;;;;;;;7.27;89.77;99712.81;2227375;80;20960;-82
2021/11/09 03:54:37;;;;;;;22.70;16.70;;;;;;;7.27;89.77;99712.81;2227288;80;21442;-80
2021/11/09 03:57:46;;;;;;;18.07;15.83;;;;;;;7.25;89.76;99714.45;2227070;80;21035;-81
2021/11/09 04:00:54;;;;;;;18.67;16.13;;;;;;;7.24;89.82;99720.06;2227600;79;21856;-82
2021/11/09 04:04:11;;;;;;;21.90;16.70;;;;;;;7.24;89.92;99722.66;2227492;79;21012;-81
2021/11/09 04:07:06;;;;;;;17.83;15.80;;;;;;;7.21;89.97;99722.95;2229321;79;21386;-81
2021/11/09 04:10:14;;;;;;;19.23;15.88;;;;;;;7.21;89.96;99721.66;2227931;79;20996;-81
2021/11/09 04:13:42;;;;;;;18.73;15.17;;;;;;;7.21;90.15;99722.95;2226740;79;21008;-80
2021/11/09 04:16:29;;;;;;;18.73;15.40;;;;;;;7.21;90.14;99722.95;2228321;79;20993;-81
2021/11/09 04:19:36;;;;;;;23.37;17.73;;;;;;;7.21;90.41;99727.73;2226762;79;21456;-80
2021/11/09 04:23:17;;;;;;;20.77;17.50;;;;;;;7.20;90.51;99730.27;2226907;79;21311;-81
2021/11/09 04:25:51;;;;;;;23.47;17.03;;;;;;;7.18;90.19;99734.52;2260832;79;20998;-80
2021/11/09 05:10:42;;;;;;;7.30;6.60;;;;;;;7.23;90.15;99805.70;2260590;79;21050;-80
2021/11/09 05:13:43;;;;;;;7.63;6.83;;;;;;;7.22;89.92;99802.22;2260359;79;20985;-81
2021/11/09 05:16:44;;;;;;;7.63;6.70;;;;;;;7.20;89.82;99801.27;2260538;79;20974;-80
2021/11/09 05:19:45;;;;;;;6.90;6.20;;;;;;;7.17;89.64;99808.05;2260530;79;20966;-80
2021/11/09 05:22:45;;;;;;;10.37;8.10;;;;;;;7.17;89.64;99808.05;2259294;79;21017;-81
2021/11/09 05:25:47;;;;;;;7.87;6.90;;;;;;;7.18;89.55;99816.31;2225771;80;20943;-81
2021/11/09 05:28:48;;;;;;;19.93;9.13;;;;;;;7.12;89.07;99822.55;2225848;80;20959;-78
2021/11/09 05:31:50;;;;;;;7.53;5.90;;;;;;;7.12;89.07;99822.55;2224942;80;21418;-80
2021/11/09 05:34:51;;;;;;;7.43;6.23;;;;;;;7.11;88.87;99837.25;2225500;80;21032;-81
2021/11/09 05:37:53;;;;;;;6.73;6.03;;;;;;;7.10;88.92;99828.09;2226393;80;21320;-82
2021/11/09 05:41:05;;;;;;;7.53;6.53;;;;;;;7.11;88.77;99841.55;2226142;79;20959;-80
2021/11/09 05:43:59;;;;;;;6.63;5.93;;;;;;;7.11;88.77;99841.55;2226464;79;20976;-81
2021/11/09 05:46:59;;;;;;;6.83;5.43;;;;;;;7.12;88.44;99851.11;2226396;80;20935;-82
2021/11/09 05:50:00;;;;;;;6.90;6.30;;;;;;;7.11;88.41;99852.83;2225787;80;20964;-80
2021/11/09 05:53:00;;;;;;;8.40;7.60;;;;;;;7.09;88.35;99862.27;2225394;80;20920;-82
2021/11/09 05:56:01;;;;;;;15.77;12.20;;;;;;;7.09;88.34;99871.34;2225364;79;20933;-83
2021/11/09 05:59:01;;;;;;;13.60;10.97;;;;;;;7.11;88.29;99879.20;2225061;80;20947;-80
2021/11/09 06:02:02;;;;;;;7.97;7.23;;;;;;;7.12;88.24;99896.14;2224528;80;21780;-79
2021/11/09 06:05:02;;;;;;;8.33;7.53;;;;;;;7.12;88.16;99901.75;2225589;80;20992;-84
2021/11/09 06:08:03;;;;;;;11.57;9.80;;;;;;;7.09;88.16;99912.89;2226087;79;20947;-82
2021/11/09 06:11:04;;;;;;;19.27;17.13;;;;;;;7.07;88.12;99919.72;2226380;80;20978;-80
2021/11/09 06:14:06;;;;;;;12.53;9.90;;;;;;;7.03;88.06;99929.09;2226286;80;21439;-79
2021/11/09 06:17:06;;;;;;;7.50;6.70;;;;;;;7.05;88.12;99938.66;2226295;80;20967;-82
2021/11/09 06:20:07;;;;;;;28.63;21.90;;;;;;;7.02;87.52;99942.00;2226551;80;21035;-82
2021/11/09 06:23:07;;;;;;;12.00;10.67;;;;;;;7.04;87.31;99941.66;2225709;79;20952;-84
2021/11/09 06:26:08;;;;;;;20.83;17.90;;;;;;;6.99;86.42;99944.06;2226344;80;20980;-82
2021/11/09 06:29:08;;;;;;;9.73;8.83;;;;;;;6.98;86.76;99956.97;2226557;80;21003;-82
2021/11/09 06:32:09;;;;;;;9.40;8.50;;;;;;;6.98;86.83;99960.45;2226526;79;21014;-80
2021/11/09 06:35:10;;;;;;;8.90;7.80;;;;;;;6.96;86.64;99967.28;2226155;80;20931;-82
2021/11/09 06:38:10;;;;;;;7.57;6.97;;;;;;;6.94;86.73;99984.91;2226295;80;20944;-84
2021/11/09 06:41:11;;;;;;;8.27;7.47;;;;;;;6.95;86.75;99987.58;2225562;80;20984;-82
2021/11/09 06:44:11;;;;;;;8.90;7.43;;;;;;;6.89;86.34;99997.66;2225976;80;21304;-82
2021/11/09 06:47:11;;;;;;;9.70;8.67;;;;;;;6.84;86.44;100013.43;2226477;80;21366;-82
2021/11/09 06:50:12;;;;;;;8.10;7.27;;;;;;;6.82;86.37;100016.77;2225658;80;20936;-80
2021/11/09 06:53:12;;;;;;;8.97;7.27;;;;;;;6.80;86.12;100023.61;2225150;80;20955;-84
2021/11/09 06:56:13;;;;;;;7.13;6.43;;;;;;;6.79;86.12;100033.09;2225728;80;20936;-81
2021/11/09 06:59:15;;;;;;;7.10;6.50;;;;;;;6.80;85.96;100043.95;2224920;80;20941;-83
2021/11/09 07:02:17;;;;;;;7.03;6.43;;;;;;;6.98;85.73;100047.42;2225768;80;21059;-80
2021/11/09 07:05:17;;;;;;;6.67;6.07;;;;;;;6.98;85.73;100047.42;2225209;79;21102;-82
2021/11/09 07:08:18;;;;;;;6.93;6.03;;;;;;;7.09;85.33;100064.77;2224786;80;20920;-81
2021/11/09 07:11:18;;;;;;;6.00;5.37;;;;;;;7.13;84.97;100064.50;2225156;80;20936;-80
2021/11/09 07:14:19;;;;;;;8.63;5.70;;;;;;;7.16;84.54;100072.02;2225597;79;21022;-80
2021/11/09 07:17:21;;;;;;;7.60;5.80;;;;;;;7.12;84.15;100071.81;2225460;79;21260;-80
2021/11/09 07:20:24;;;;;;;12.18;10.43;;;;;;;7.17;84.21;100072.91;2225800;80;20956;-80
2021/11/09 07:23:24;;;;;;;7.50;6.77;;;;;;;7.22;83.77;100084.39;2225032;79;20900;-80
2021/11/09 07:26:25;;;;;;;7.23;6.53;;;;;;;7.17;83.28;100093.27;2224589;80;20994;-80
2021/11/09 07:29:25;;;;;;;7.20;6.50;;;;;;;7.10;83.27;100102.02;2226219;80;21408;-82
2021/11/09 07:32:26;;;;;;;7.90;6.93;;;;;;;6.99;83.18;100102.41;2225689;80;20963;-82
2021/11/09 07:35:27;;;;;;;10.33;9.30;;;;;;;7.01;83.57;100112.87;2225118;80;21354;-79
2021/11/09 07:38:28;;;;;;;11.30;10.10;;;;;;;7.05;83.80;100117.80;2225227;80;21292;-79
2021/11/09 07:41:28;;;;;;;14.27;12.87;;;;;;;7.11;83.43;100128.45;2225602;80;21406;-81
2021/11/09 07:44:29;;;;;;;21.60;17.17;;;;;;;7.17;83.24;100130.03;2225500;80;20932;-79
2021/11/09 07:47:29;;;;;;;9.37;8.40;;;;;;;7.29;83.06;100135.37;2224917;80;20967;-81
2021/11/09 07:50:30;;;;;;;9.37;8.20;;;;;;;7.40;82.99;100139.76;2225337;80;20967;-81
2021/11/09 07:53:34;;;;;;;10.37;9.27;;;;;;;7.47;82.85;100137.02;2225927;80;21047;-81
2021/11/09 07:56:36;;;;;;;10.87;9.87;;;;;;;7.48;82.18;100142.28;2225690;79;20984;-79
2021/11/09 07:59:57;;;;;;;9.37;8.47;;;;;;;7.53;82.18;100148.58;2224949;79;20967;-80
2021/11/09 08:06:15;;;;;;;9.77;8.83;;;;;;;7.60;82.03;100162.73;2240094;79;20920;-79
2021/11/09 08:09:19;;;;;;;7.83;6.87;;;;;;;7.68;82.04;100168.74;2224273;79;21019;-80
2021/11/09 08:12:15;;;;;;;7.07;5.70;;;;;;;7.81;81.36;100178.41;2224928;79;20995;-80
2021/11/09 08:15:15;;;;;;;7.57;6.20;;;;;;;7.87;80.39;100186.48;2226239;80;21367;-81
2021/11/09 08:18:16;;;;;;;7.13;5.63;;;;;;;7.79;80.21;100201.70;2226254;79;20944;-82
2021/11/09 08:21:16;;;;;;;8.13;5.03;;;;;;;7.71;79.54;100211.28;2226630;80;21051;-80
2021/11/09 08:24:17;;;;;;;7.10;5.07;;;;;;;7.61;79.15;100214.77;2235379;79;21019;-81
2021/11/09 08:27:18;;;;;;;5.90;5.10;;;;;;;7.62;80.13;100214.36;2261122;79;21490;-81
2021/11/09 08:30:18;;;;;;;5.90;4.83;;;;;;;7.70;79.74;100222.09;2260321;79;20963;-80
2021/11/09 08:33:20;;;;;;;8.37;6.07;;;;;;;7.67;79.83;100230.64;2261018;79;20959;-81
2021/11/09 08:36:23;;;;;;;7.77;6.20;;;;;;;7.69;79.84;100235.91;2260529;79;21003;-82
2021/11/09 08:39:31;;;;;;;9.90;8.10;;;;;;;7.65;79.45;100236.59;2260875;79;21023;-80
2021/11/09 08:45:51;;;;;;;9.43;8.53;;;;;;;7.30;79.30;100258.34;2234172;79;20991;-82
2021/11/09 08:48:45;;;;;;;9.00;7.80;;;;;;;7.30;79.30;100258.34;2257800;79;20966;-82
2021/11/09 08:51:45;;;;;;;8.17;7.37;;;;;;;7.40;79.89;100259.25;2259862;79;21005;-82
2021/11/09 08:55:00;;;;;;;10.20;7.43;;;;;;;7.40;79.89;100259.25;2260207;79;20999;-81
2021/11/09 09:01:22;;;;;;;23.57;12.77;;;;;;;7.56;79.78;100272.14;2259645;79;21046;-83
2021/11/09 09:04:20;;;;;;;22.60;12.40;;;;;;;7.55;79.71;100279.86;2259888;79;21864;-81
2021/11/09 09:07:21;;;;;;;10.20;7.67;;;;;;;7.60;79.42;100281.86;2260302;79;20970;-81
2021/11/09 09:10:21;;;;;;;13.13;8.77;;;;;;;7.59;79.15;100280.08;2260605;79;21367;-81
2021/11/09 09:13:25;;;;;;;8.50;7.20;;;;;;;7.60;79.59;100285.75;2259740;79;20920;-81
2021/11/09 09:16:26;;;;;;;5.33;4.80;;;;;;;7.66;79.02;100283.84;2260576;79;20963;-83
2021/11/09 09:19:30;;;;;;;8.70;6.87;;;;;;;7.64;78.60;100292.88;2261126;79;20940;-81
2021/11/09 09:22:40;;;;;;;10.57;6.97;;;;;;;7.61;78.66;100297.04;2261191;79;20955;-82
2021/11/09 09:25:44;;;;;;;9.57;7.37;;;;;;;7.47;77.99;100299.41;2259399;79;21490;-82
2021/11/09 09:55:23;;;;;;;17.57;10.27;;;;;;;6.97;79.29;100338.10;2233378;79;20983;-80
2021/11/09 09:58:20;;;;;;;11.40;7.10;;;;;;;7.06;79.42;100338.97;2261501;79;21392;-81
2021/11/09 10:01:21;;;;;;;10.00;8.80;;;;;;;7.15;79.14;100339.01;2260607;79;21031;-80
2021/11/09 10:04:21;;;;;;;15.03;10.40;;;;;;;7.24;78.87;100335.56;2260922;79;20991;-80
2021/11/09 10:07:22;;;;;;;8.87;7.77;;;;;;;7.27;78.77;100343.50;2260251;79;21011;-81
2021/11/09 10:10:23;;;;;;;9.60;8.33;;;;;;;7.34;78.66;100345.98;2261055;79;20963;-83
2021/11/09 10:13:23;;;;;;;8.27;7.30;;;;;;;7.39;78.37;100347.51;2260581;79;20904;-82
2021/11/09 10:16:24;;;;;;;13.87;9.97;;;;;;;7.42;78.04;100352.44;2260370;79;20951;-80
2021/11/09 10:19:25;;;;;;;9.43;6.00;;;;;;;7.40;77.72;100352.78;2260970;79;20959;-81
2021/11/09 10:22:26;;;;;;;8.97;5.47;;;;;;;7.38;76.89;100367.40;2261291;79;20936;-82
2021/11/09 10:25:26;;;;;;;9.20;7.80;;;;;;;7.38;76.89;100367.40;2261656;79;21027;-80
2021/11/09 10:28:27;;;;;;;6.27;5.67;;;;;;;7.40;77.43;100372.27;2260792;79;20975;-80
2021/11/09 10:31:27;;;;;;;7.07;5.50;;;;;;;7.42;77.33;100382.32;2260556;79;20948;-82
2021/11/09 10:34:29;;;;;;;6.20;5.60;;;;;;;7.35;76.75;100384.13;2260608;79;20976;-81
2021/11/09 10:37:29;;;;;;;5.63;5.13;;;;;;;7.31;76.45;100387.40;2260725;79;20979;-80
2021/11/09 10:40:33;;;;;;;7.33;5.03;;;;;;;7.32;75.99;100391.38;2260874;79;21073;-80
2021/11/09 10:43:34;;;;;;;5.60;4.87;;;;;;;7.32;76.25;100393.08;2260615;79;20908;-80
2021/11/09 10:46:34;;;;;;;9.70;8.30;;;;;;;7.38;75.66;100399.87;2260334;79;21988;-80
2021/11/09 10:49:34;;;;;;;6.63;5.93;;;;;;;7.42;75.79;100398.31;2260361;79;20963;-79
2021/11/09 10:52:36;;;;;;;8.20;6.47;;;;;;;7.52;75.36;100396.23;2260853;79;20908;-79
2021/11/09 10:55:49;;;;;;;7.37;5.63;;;;;;;7.59;75.25;100401.33;2260161;79;21387;-80
2021/11/09 10:58:55;;;;;;;5.47;4.67;;;;;;;7.59;75.25;100401.33;2258675;79;21374;-81
2021/11/09 11:05:03;;;;;;;9.80;5.70;;;;;;;8.74;88.76;100403.70;2260678;79;21268;-82
2021/11/09 11:08:04;;;;;;;5.70;5.20;;;;;;;9.70;75.09;100396.04;2260677;79;20928;-81
2021/11/09 11:11:04;;;;;;;14.67;8.77;;;;;;;9.33;72.62;100397.13;2260091;79;21304;-80
2021/11/09 11:14:05;;;;;;;6.67;5.37;;;;;;;9.03;72.40;100398.44;2260656;79;20954;-81
2021/11/09 11:17:06;;;;;;;5.37;4.87;;;;;;;8.85;72.26;100405.95;2261766;79;20979;-80
2021/11/09 11:20:06;;;;;;;5.90;5.30;;;;;;;8.77;71.84;100406.44;2261265;79;20967;-80
2021/11/09 11:23:07;;;;;;;5.10;4.60;;;;;;;8.64;71.80;100403.67;2261530;79;20972;-79
2021/11/09 11:26:08;;;;;;;5.23;4.73;;;;;;;8.58;72.25;100402.09;2244372;79;21446;-79
2021/11/09 11:29:08;;;;;;;8.80;5.03;;;;;;;8.53;72.15;100406.21;2233039;79;20954;-79
2021/11/09 11:32:09;;;;;;;6.20;4.43;;;;;;;8.51;71.53;100407.86;2232943;79;21382;-79
2021/11/09 11:35:10;;;;;;;5.07;4.57;;;;;;;8.46;71.45;100416.76;2232755;79;21363;-78
2021/11/09 11:38:10;;;;;;;6.97;5.63;;;;;;;8.40;71.55;100416.89;2232760;79;20955;-80
2021/11/09 11:41:11;;;;;;;5.80;4.33;;;;;;;8.41;71.60;100429.08;2234499;79;20994;-80
2021/11/09 11:44:12;;;;;;;8.17;6.13;;;;;;;8.36;71.33;100425.38;2233086;80;20983;-79
2021/11/09 11:47:13;;;;;;;9.00;6.83;;;;;;;8.20;71.33;100431.14;2234108;79;21351;-79
2021/11/09 11:50:14;;;;;;;9.37;6.07;;;;;;;8.05;71.37;100439.94;2233961;79;21006;-80
2021/11/09 11:53:14;;;;;;;15.57;10.73;;;;;;;7.94;72.07;100430.34;2234906;79;20947;-81
2021/11/09 11:56:16;;;;;;;7.17;6.30;;;;;;;7.91;72.75;100436.69;2234313;79;21011;-80
2021/11/09 11:59:16;;;;;;;7.67;5.03;;;;;;;7.92;72.62;100447.57;2233143;79;20991;-80
2021/11/09 12:02:17;;;;;;;11.10;6.43;;;;;;;7.92;72.62;100441.07;2233217;79;20959;-81
2021/11/09 12:08:20;;;;;;;5.77;4.63;;;;;;;8.05;72.23;100435.63;2211796;80;20980;-79
2021/11/09 12:11:21;;;;;;;6.37;4.77;;;;;;;8.04;71.60;100431.66;2233605;79;20935;-80
2021/11/09 12:14:21;;;;;;;4.60;4.20;;;;;;;8.04;71.78;100428.65;2233127;79;20963;-78
2021/11/09 12:17:22;;;;;;;7.17;4.67;;;;;;;8.07;71.47;100420.98;2232921;80;20935;-83
2021/11/09 12:20:22;;;;;;;5.43;4.60;;;;;;;8.15;71.55;100424.84;2233514;79;20998;-78
2021/11/09 12:23:23;;;;;;;5.63;4.27;;;;;;;8.22;71.29;100428.61;2232428;79;20979;-80
2021/11/09 12:26:23;;;;;;;5.40;4.40;;;;;;;8.25;71.63;100432.25;2228259;79;20976;-82
2021/11/09 12:29:24;;;;;;;4.20;3.80;;;;;;;8.29;71.27;100432.87;2225497;80;21355;-79
2021/11/09 12:32:24;;;;;;;7.30;3.90;;;;;;;8.32;71.45;100426.91;2225324;80;20944;-79
2021/11/09 12:35:26;;;;;;;4.97;3.83;;;;;;;8.34;70.83;100429.63;2225810;79;21015;-81
2021/11/09 12:38:26;;;;;;;3.97;3.50;;;;;;;8.31;70.62;100429.92;2225386;80;21391;-80
2021/11/09 12:41:30;;;;;;;4.57;3.80;;;;;;;8.26;70.73;100426.22;2226079;80;20956;-79
2021/11/09 12:44:30;;;;;;;7.30;6.37;;;;;;;8.25;70.60;100427.45;2225678;80;20961;-80
2021/11/09 12:47:32;;;;;;;7.70;6.33;;;;;;;8.17;71.36;100425.80;2226058;80;20939;-79
2021/11/09 12:50:32;;;;;;;10.63;7.23;;;;;;;8.15;71.74;100425.25;2226306;80;20955;-79
2021/11/09 12:53:33;;;;;;;4.53;4.13;;;;;;;8.16;71.89;100433.13;2226769;79;20927;-80
2021/11/09 12:56:34;;;;;;;5.33;3.67;;;;;;;8.12;71.56;100432.50;2225926;80;20952;-80
2021/11/09 13:02:48;;;;;;;6.57;4.83;;;;;;;8.02;71.46;100435.90;2213722;80;20928;-78
2021/11/09 13:05:48;;;;;;;4.47;4.07;;;;;;;7.94;71.50;100433.83;2223288;79;21348;-79
2021/11/09 13:08:52;;;;;;;5.20;4.63;;;;;;;7.88;71.64;100439.14;2224080;79;20992;-80
2021/11/09 13:11:48;;;;;;;6.57;5.77;;;;;;;7.83;71.62;100440.63;2224431;79;20940;-80
2021/11/09 13:14:47;;;;;;;7.53;6.07;;;;;;;7.77;71.74;100444.20;2224962;79;20915;-80
2021/11/09 13:17:50;;;;;;;5.33;4.83;;;;;;;7.68;71.79;100446.84;2225155;80;20924;-80
2021/11/09 13:20:54;;;;;;;5.33;4.83;;;;;;;7.59;71.88;100441.20;2224873;79;20960;-79
2021/11/09 13:23:53;;;;;;;11.37;6.50;;;;;;;7.55;72.25;100448.77;2225220;79;20936;-79
2021/11/09 13:26:53;;;;;;;8.60;6.20;;;;;;;7.55;72.25;100448.77;2225852;79;21418;-80
2021/11/09 13:29:54;;;;;;;9.33;6.10;;;;;;;7.51;72.57;100451.63;2225538;79;20940;-79
2021/11/09 13:32:54;;;;;;;9.67;5.67;;;;;;;7.52;72.78;100456.00;2225464;80;20936;-80
2021/11/09 13:35:55;;;;;;;10.50;7.60;;;;;;;7.53;72.97;100456.48;2225106;80;20936;-78
2021/11/09 13:38:57;;;;;;;12.63;8.40;;;;;;;7.58;72.91;100459.31;2223860;79;20928;-80
2021/11/09 13:41:58;;;;;;;17.93;10.00;;;;;;;7.56;73.06;100460.53;2224115;80;20968;-79
2021/11/09 13:44:59;;;;;;;13.77;9.47;;;;;;;7.52;72.88;100461.61;2223845;80;20928;-80
2021/11/09 13:47:59;;;;;;;11.83;9.73;;;;;;;7.48;73.02;100460.97;2224738;79;20963;-80
2021/11/09 13:51:00;;;;;;;14.33;9.53;;;;;;;7.44;73.37;100459.92;2225721;79;20913;-79
2021/11/09 13:54:05;;;;;;;11.87;9.47;;;;;;;7.44;73.04;100457.33;2214850;80;20916;-80
2021/11/09 13:57:05;;;;;;;14.40;10.03;;;;;;;7.44;73.04;100457.33;2225694;80;20972;-79
2021/11/09 14:00:05;;;;;;;14.17;10.20;;;;;;;7.43;73.14;100460.74;2227197;80;21385;-80
2021/11/09 14:03:10;;;;;;;19.63;10.90;;;;;;;7.42;73.33;100468.46;2226179;80;20932;-79
2021/11/09 14:09:42;;;;;;;7.53;6.43;;;;;;;7.39;73.43;100473.50;2215207;80;21335;-81
2021/11/09 14:18:45;;;;;;;7.17;6.37;;;;;;;7.37;73.75;100472.13;2214980;80;21387;-80
2021/11/09 14:21:45;;;;;;;8.47;6.30;;;;;;;7.37;73.75;100472.13;2225927;79;20980;-80
2021/11/09 14:24:47;;;;;;;10.07;7.40;;;;;;;7.37;73.82;100470.83;2225003;80;21474;-81
2021/11/09 14:27:48;;;;;;;9.20;7.47;;;;;;;7.35;74.05;100465.96;2255136;79;20998;-81
2021/11/09 14:30:49;;;;;;;86.57;10.73;;;;;;;7.37;74.20;100460.44;2260296;79;20943;-79
2021/11/09 14:33:52;;;;;;;8.17;7.30;;;;;;;7.43;74.39;100465.94;2260339;79;20976;-81
2021/11/09 14:36:52;;;;;;;15.57;8.30;;;;;;;7.45;73.58;100476.00;2260575;79;21000;-80
2021/11/09 14:39:53;;;;;;;15.33;10.10;;;;;;;7.45;73.58;100476.00;2261409;79;20986;-80
2021/11/09 14:46:05;;;;;;;9.33;7.20;;;;;;;7.29;74.31;100473.45;2261347;79;21371;-80
2021/11/09 14:49:04;;;;;;;9.23;5.80;;;;;;;7.25;73.85;100470.21;2260871;79;21391;-78
2021/11/09 14:52:08;;;;;;;5.30;4.80;;;;;;;7.19;73.84;100468.20;2261592;79;20955;-81
2021/11/09 14:55:07;;;;;;;16.60;5.07;;;;;;;7.18;73.58;100469.41;2261338;79;21036;-80
2021/11/09 14:58:07;;;;;;;5.80;4.73;;;;;;;7.13;73.28;100469.18;2261320;79;20995;-79
2021/11/09 15:01:08;;;;;;;5.90;4.33;;;;;;;7.11;73.77;100474.70;2261654;79;20987;-79
2021/11/09 15:04:11;;;;;;;5.60;4.40;;;;;;;7.08;73.06;100469.35;2261366;79;20955;-80
2021/11/09 15:07:22;;;;;;;4.70;4.07;;;;;;;7.06;73.03;100470.98;2261584;79;21051;-80
2021/11/09 15:30:01;;;;;;;6.53;4.80;;;;;;;6.61;74.35;100478.11;2234807;79;21354;-82
2021/11/09 15:33:02;;;;;;;4.63;4.17;;;;;;;6.43;74.55;100471.04;2261249;79;21000;-82
2021/11/09 15:36:29;;;;;;;15.63;6.10;;;;;;;6.19;74.56;100475.38;2262034;79;21390;-81
2021/11/09 15:39:16;;;;;;;5.70;4.65;;;;;;;5.94;74.94;100470.91;2259406;79;21031;-82
2021/11/09 15:42:19;;;;;;;6.37;4.93;;;;;;;5.72;75.11;100478.73;2262272;79;20952;-82
2021/11/09 15:45:19;;;;;;;7.00;5.30;;;;;;;5.50;75.58;100485.19;2262274;79;20923;-81
2021/11/09 15:48:20;;;;;;;5.23;4.73;;;;;;;5.36;75.83;100493.45;2262128;79;21334;-80
2021/11/09 15:51:21;;;;;;;125.10;12.10;;;;;;;5.18;75.96;100496.22;2262574;79;21378;-81
2021/11/09 15:54:22;;;;;;;16.43;5.70;;;;;;;4.98;76.28;100503.69;2261985;79;21370;-81
2021/11/09 15:57:22;;;;;;;6.73;4.73;;;;;;;4.83;76.54;100511.82;2261860;79;20995;-81
2021/11/09 16:00:23;;;;;;;6.63;6.03;;;;;;;4.67;76.93;100512.58;2261861;79;20987;-81
2021/11/09 16:03:23;;;;;;;6.47;5.30;;;;;;;4.54;77.21;100513.02;2262288;79;20957;-81
2021/11/09 16:06:26;;;;;;;7.40;5.60;;;;;;;4.44;77.47;100520.20;2261823;79;20936;-83
2021/11/09 16:09:26;;;;;;;86.50;11.17;;;;;;;4.41;77.78;100520.41;2261519;79;20984;-80
2021/11/09 16:12:28;;;;;;;11.07;6.00;;;;;;;4.33;77.88;100517.31;2262422;79;20936;-82
2021/11/09 16:15:28;;;;;;;26.90;5.80;;;;;;;4.27;78.13;100520.80;2262996;79;20960;-82
2021/11/09 16:18:29;;;;;;;6.77;5.67;;;;;;;4.20;78.30;100525.09;2262148;79;21011;-79
2021/11/09 16:21:29;;;;;;;7.30;5.33;;;;;;;4.12;78.57;100525.89;2262211;79;20963;-82
2021/11/09 16:24:30;;;;;;;5.27;4.77;;;;;;;4.05;78.72;100528.88;2262269;79;20988;-81
2021/11/09 16:27:30;;;;;;;35.83;6.83;;;;;;;4.00;78.71;100532.86;2261862;79;20988;-79
2021/11/09 16:30:32;;;;;;;7.70;5.60;;;;;;;3.93;79.09;100534.95;2261971;79;20976;-81
2021/11/09 16:33:37;;;;;;;6.07;5.47;;;;;;;3.86;78.85;100541.80;2262181;79;20944;-82
2021/11/09 16:36:41;;;;;;;6.60;5.47;;;;;;;3.74;78.85;100540.61;2262283;79;20999;-82